Airfield :
LOGIN :

Register | Disclaimer

   EN    FR    IT 

 










Legend :    VFR   Marginal VFR   IFR   Intensive IFR   Very Intensive IFR
Visi :
Ceiling :
>= 8 km
>= 3000ft
5 to 8 km
1000 to 3000 ft
1500m to 5 km
500 to 1000 ft
800 to 1500m
200 to 500 ft
< 800m
< 200 ft
Symbols :   Thunderstorms  Fog  Heavy snow  Heavy precipitations  Wind > 20 kt
SIGMETs :     Misc.  Thunderstorms  Icing  Turbulence  Mountain Waves  Volcanic Ashes






- Airport Elevation : 1234 ft
- IATA code : LUX


ELLX - Luxembourg Findel

CURRENT METAR :
  • 271450Z 15004KT 110V190 2300 -PL -SN FEW001 BKN004 00/M00 Q0987 R24///99// NOSIG

EXPIRED METARs :
  • 271420Z 14008KT 100V170 1700 -SN -PL FEW001 BKN004 M00/M00 Q0987 R06/99 NOSIG
  • 271350Z 14012KT 0800 R24/1100V1600U SN FEW001 BKN004 M00/M00 Q0988 RESN R24///99// NOSIG
  • 271320Z 14012KT 0800 R24/0800V1000N SN SCT001 BKN004 M00/M00 Q0989 RESN R24///99// NOSIG
  • 271250Z 14012KT 110V170 0700 R24/0700N -SN SCT001 BKN003 M00/M00 Q0991 NOSIG
  • 271220Z 14014KT 110V170 0500 R24/0700V0900N SN SCT001 SCT002 BKN003 M00/M00 Q0992 R06///99// NOSIG

TAF TAF ELLX
Valid from the 27 at 12:00 until the 28 at 18:00 UTC


271100Z 2712/2818 14008KT 2000 -SN SCT000 BKN005
TEMPO 2712/2717 1200 SN
PROB40 2712/2715 0600 +SN BKN002
BECMG 2714/2715 30015G30KT
BECMG 2717/2718 9999 NSW BKN015
TEMPO 2718/2721 1000 SHSN BKN015CB
ATIS : +352 4798 27300
Met : +352 4798 27010 / 27050



MET'MAP, your aeronautical weather chart ! - Copyright ORBIFLY December 2007 - Disclaimer

ORBIFLY MET'MAP TEAM :

Programming & Development : Alexandra Zaïnal
Concept & original design : Baudouin d'Aumeries
Assistance for programming : Marc-Olivier Méhu
Technical & hardware support : Manuel Goepfert

Contact : metmap@orbifly.com




SOURCES & CREDITS :

   NOAA